createdAt,value
2023-04-26T00:01:59.889Z,6.67
2023-04-26T00:04:27.540Z,6.97
2023-04-26T00:06:55.361Z,10.40
2023-04-26T00:09:22.871Z,7.90
2023-04-26T00:11:50.496Z,8.30
2023-04-26T00:14:18.073Z,10.33
2023-04-26T00:16:45.689Z,9.40
2023-04-26T00:19:13.408Z,8.03
2023-04-26T00:21:41.031Z,9.97
2023-04-26T00:24:08.823Z,7.87
2023-04-26T00:26:36.420Z,8.63
2023-04-26T00:29:07.069Z,11.53
2023-04-26T00:31:34.652Z,5.43
2023-04-26T00:34:02.244Z,9.33
2023-04-26T00:36:29.765Z,8.03
2023-04-26T00:38:57.280Z,7.07
2023-04-26T00:41:24.836Z,6.73
2023-04-26T00:43:52.363Z,7.60
2023-04-26T00:46:20.215Z,13.87
2023-04-26T00:48:48.421Z,10.20
2023-04-26T00:51:16.206Z,7.13
2023-04-26T00:53:43.865Z,6.17
2023-04-26T00:56:11.804Z,9.37
2023-04-26T00:58:39.321Z,7.37
2023-04-26T01:01:06.957Z,6.60
2023-04-26T01:03:34.843Z,11.47
2023-04-26T01:06:02.601Z,7.37
2023-04-26T01:08:30.071Z,8.57
2023-04-26T01:10:58.086Z,9.40
2023-04-26T01:13:25.751Z,10.03
2023-04-26T01:15:54.318Z,8.77
2023-04-26T01:18:21.821Z,8.50
2023-04-26T01:20:49.404Z,10.13
2023-04-26T01:23:16.953Z,9.80
2023-04-26T01:25:44.484Z,9.43
2023-04-26T01:28:11.960Z,10.83
2023-04-26T01:30:39.696Z,9.17
2023-04-26T01:33:07.271Z,10.33
2023-04-26T01:35:37.725Z,9.93
2023-04-26T01:38:05.292Z,11.80
2023-04-26T01:40:32.818Z,8.70
2023-04-26T01:43:00.689Z,6.33
2023-04-26T01:45:28.158Z,7.87
2023-04-26T01:47:55.731Z,11.33
2023-04-26T01:50:25.814Z,10.57
2023-04-26T01:52:53.321Z,11.33
2023-04-26T01:55:20.861Z,9.17
2023-04-26T01:57:48.401Z,10.10
2023-04-26T02:00:16.005Z,9.13
2023-04-26T02:02:43.747Z,10.70
2023-04-26T02:05:11.901Z,14.50
2023-04-26T02:07:39.454Z,10.90
2023-04-26T02:10:07.303Z,11.87
2023-04-26T02:12:34.843Z,16.33
2023-04-26T02:15:02.355Z,11.77
2023-04-26T02:17:30.015Z,10.30
2023-04-26T02:19:57.521Z,11.00
2023-04-26T02:22:25.408Z,15.07
2023-04-26T02:24:53.209Z,9.87
2023-04-26T02:27:20.822Z,13.93
2023-04-26T02:29:48.343Z,12.87
2023-04-26T02:32:15.938Z,12.67
2023-04-26T02:34:43.768Z,11.23
2023-04-26T02:37:11.492Z,9.97
2023-04-26T02:39:39.009Z,11.60
2023-04-26T02:42:10.510Z,11.23
2023-04-26T02:44:38.118Z,10.57
2023-04-26T02:47:05.687Z,11.10
2023-04-26T02:49:33.271Z,9.73
2023-04-26T02:52:00.782Z,15.37
2023-04-26T02:54:28.369Z,9.43
2023-04-26T02:56:55.862Z,13.67
2023-04-26T02:59:23.467Z,11.37
2023-04-26T03:01:51.055Z,10.47
2023-04-26T03:04:18.916Z,13.70
2023-04-26T03:06:46.575Z,15.07
2023-04-26T03:09:14.175Z,10.33
2023-04-26T03:11:41.707Z,13.90
2023-04-26T03:14:09.220Z,16.40
2023-04-26T03:16:41.921Z,10.67
2023-04-26T03:19:09.515Z,17.33
2023-04-26T03:21:37.066Z,15.10
2023-04-26T03:24:04.693Z,11.63
2023-04-26T03:26:32.277Z,9.47
2023-04-26T03:29:03.302Z,13.50
2023-04-26T03:31:30.850Z,12.77
2023-04-26T03:33:58.405Z,10.87
2023-04-26T03:36:25.947Z,11.07
2023-04-26T03:38:53.787Z,14.27
2023-04-26T03:41:21.538Z,12.10
2023-04-26T03:43:49.291Z,11.90
2023-04-26T03:46:16.843Z,13.90
2023-04-26T03:48:44.490Z,12.80
2023-04-26T03:51:12.068Z,11.67
2023-04-26T03:53:39.664Z,11.93
2023-04-26T03:56:07.412Z,12.37
2023-04-26T03:58:34.969Z,16.03
2023-04-26T04:01:02.659Z,11.80
2023-04-26T04:03:30.434Z,16.13
2023-04-26T04:05:58.222Z,12.53
2023-04-26T04:08:25.772Z,14.97
2023-04-26T04:10:53.329Z,14.87
2023-04-26T04:13:20.942Z,14.33
2023-04-26T04:15:48.577Z,12.37
2023-04-26T04:18:16.210Z,12.10
2023-04-26T04:20:43.779Z,13.30
2023-04-26T04:23:13.851Z,20.83
2023-04-26T04:25:41.437Z,15.77
2023-04-26T04:28:08.969Z,19.57
2023-04-26T04:30:36.576Z,14.73
2023-04-26T04:33:04.226Z,22.40
2023-04-26T04:35:32.145Z,22.27
2023-04-26T04:37:59.874Z,14.60
2023-04-26T04:40:29.081Z,14.10
2023-04-26T04:42:56.614Z,15.20
2023-04-26T04:45:24.214Z,22.30
2023-04-26T04:47:51.773Z,15.87
2023-04-26T04:50:19.437Z,13.77
2023-04-26T04:52:47.407Z,16.37
2023-04-26T04:55:15.090Z,17.20
2023-04-26T04:57:43.110Z,15.63
2023-04-26T05:00:11.240Z,16.07
2023-04-26T05:02:38.857Z,15.27
2023-04-26T05:05:06.932Z,16.17
2023-04-26T05:07:34.785Z,12.40
2023-04-26T05:10:02.507Z,14.73
2023-04-26T05:12:30.116Z,13.47
2023-04-26T05:14:57.675Z,16.17
2023-04-26T05:17:25.299Z,17.47
2023-04-26T05:19:52.951Z,14.70
2023-04-26T05:22:20.466Z,12.50
2023-04-26T05:24:48.562Z,12.97
2023-04-26T05:27:16.189Z,12.23
2023-04-26T05:29:43.699Z,15.83
2023-04-26T05:32:11.286Z,12.70
2023-04-26T05:34:38.887Z,13.10
2023-04-26T05:37:06.393Z,14.07
2023-04-26T05:39:33.995Z,13.07
2023-04-26T05:42:01.518Z,13.20
2023-04-26T05:44:29.089Z,11.80
2023-04-26T05:46:56.640Z,14.47
2023-04-26T05:49:27.221Z,12.40
2023-04-26T05:51:54.836Z,14.20
2023-04-26T05:54:22.359Z,11.80
2023-04-26T05:56:49.946Z,13.77
2023-04-26T05:59:17.477Z,14.87
2023-04-26T06:01:45.047Z,14.10
2023-04-26T06:04:15.590Z,15.83
2023-04-26T06:06:43.334Z,13.43
2023-04-26T06:09:10.883Z,11.60
2023-04-26T06:11:38.541Z,12.53
2023-04-26T06:14:06.812Z,12.70
2023-04-26T06:16:36.533Z,15.20
2023-04-26T06:19:04.142Z,11.80
2023-04-26T06:21:31.774Z,15.07
2023-04-26T06:23:59.333Z,14.33
2023-04-26T06:26:26.902Z,15.70
2023-04-26T06:28:54.446Z,15.40
2023-04-26T06:31:22.126Z,16.93
2023-04-26T06:33:49.882Z,17.83
2023-04-26T06:36:17.764Z,16.43
2023-04-26T06:38:45.289Z,14.30
2023-04-26T06:41:12.902Z,19.27
2023-04-26T06:43:40.455Z,15.50
2023-04-26T06:46:08.148Z,12.60
2023-04-26T06:48:35.697Z,16.13
2023-04-26T06:51:07.195Z,17.83
2023-04-26T06:53:37.794Z,13.07
2023-04-26T06:56:05.450Z,12.70
2023-04-26T06:58:32.998Z,13.23
2023-04-26T07:01:00.595Z,14.53
2023-04-26T07:03:28.306Z,15.27
2023-04-26T07:05:56.396Z,13.80
2023-04-26T07:08:23.909Z,16.33
2023-04-26T07:10:51.459Z,19.87
2023-04-26T07:13:19.422Z,17.67
2023-04-26T07:15:47.045Z,15.00
2023-04-26T07:18:14.803Z,14.73
2023-04-26T07:20:42.414Z,14.57
2023-04-26T07:23:09.964Z,14.77
2023-04-26T07:25:37.560Z,14.50
2023-04-26T07:28:05.218Z,16.37
2023-04-26T07:30:32.858Z,14.83
2023-04-26T07:33:00.510Z,17.07
2023-04-26T07:35:29.017Z,15.40
2023-04-26T07:37:56.531Z,9.83
2023-04-26T07:40:25.254Z,13.63
2023-04-26T07:42:53.868Z,11.90
2023-04-26T07:45:21.881Z,9.43
2023-04-26T07:47:49.469Z,6.13
2023-04-26T07:50:17.081Z,5.70
2023-04-26T07:52:44.704Z,14.53
2023-04-26T07:55:12.368Z,7.67
2023-04-26T07:57:39.867Z,10.73
2023-04-26T08:00:07.740Z,13.03
2023-04-26T08:02:44.733Z,9.57
2023-04-26T08:05:13.625Z,9.90
2023-04-26T08:07:41.816Z,7.17
2023-04-26T08:10:09.741Z,10.10
2023-04-26T08:12:38.210Z,10.03
2023-04-26T08:15:06.299Z,7.00
2023-04-26T08:17:33.977Z,11.23
2023-04-26T08:20:01.608Z,7.70
2023-04-26T08:22:29.208Z,6.40
2023-04-26T08:24:56.754Z,5.40
2023-04-26T08:27:24.253Z,13.60
2023-04-26T08:29:51.827Z,7.37
2023-04-26T08:32:19.436Z,11.37
2023-04-26T08:34:46.994Z,7.80
2023-04-26T08:37:14.729Z,5.70
2023-04-26T08:39:42.356Z,7.43
2023-04-26T08:42:14.425Z,8.17
2023-04-26T08:44:42.723Z,8.33
2023-04-26T08:47:16.371Z,6.87
2023-04-26T08:49:47.541Z,8.53
2023-04-26T08:52:15.869Z,6.87
2023-04-26T08:54:43.871Z,7.73
2023-04-26T08:57:12.283Z,6.80
2023-04-26T08:59:40.198Z,7.60
2023-04-26T09:02:08.278Z,8.30
2023-04-26T09:04:36.267Z,6.43
2023-04-26T09:07:04.721Z,8.80
2023-04-26T09:09:35.508Z,8.03
2023-04-26T09:12:03.075Z,6.53
2023-04-26T09:14:30.822Z,4.37
2023-04-26T09:16:58.483Z,6.40
2023-04-26T09:19:39.349Z,7.70
2023-04-26T09:22:06.975Z,11.43
2023-04-26T09:24:47.405Z,10.83
2023-04-26T09:27:15.284Z,8.57
2023-04-26T09:29:57.852Z,6.10
2023-04-26T09:32:25.496Z,5.67
2023-04-26T09:34:53.092Z,6.97
2023-04-26T09:37:20.726Z,5.77
2023-04-26T09:39:48.247Z,7.43
2023-04-26T09:42:17.822Z,5.33
2023-04-26T09:44:45.451Z,7.33
2023-04-26T09:47:13.116Z,4.97
2023-04-26T09:49:51.554Z,4.20
2023-04-26T09:52:19.743Z,9.20
2023-04-26T09:54:51.316Z,8.50
2023-04-26T09:57:21.072Z,8.63
2023-04-26T09:59:55.726Z,5.97
2023-04-26T10:02:24.447Z,4.43
2023-04-26T10:04:53.725Z,6.93
2023-04-26T10:07:22.470Z,6.77
2023-04-26T10:09:50.565Z,6.43
2023-04-26T10:12:19.181Z,4.17
2023-04-26T10:14:50.247Z,4.27
2023-04-26T10:17:19.456Z,7.20
2023-04-26T10:19:49.014Z,5.67
2023-04-26T10:22:27.722Z,5.67
2023-04-26T10:24:56.040Z,5.33
2023-04-26T10:27:42.419Z,7.63
2023-04-26T10:30:10.962Z,4.37
2023-04-26T10:32:53.937Z,5.17
2023-04-26T10:35:22.012Z,6.83
2023-04-26T10:38:01.671Z,4.57
2023-04-26T10:40:30.585Z,4.80
2023-04-26T10:43:10.387Z,6.40
2023-04-26T10:45:38.857Z,4.33
2023-04-26T10:48:18.680Z,6.93
2023-04-26T10:51:01.512Z,7.83
2023-04-26T10:53:30.310Z,4.67
2023-04-26T10:55:57.896Z,3.87
2023-04-26T10:58:26.717Z,5.93
2023-04-26T11:01:12.937Z,5.63
2023-04-26T11:04:04.050Z,5.23
2023-04-26T11:06:52.935Z,5.93
2023-04-26T11:09:40.120Z,9.13
2023-04-26T11:12:11.488Z,11.63
2023-04-26T11:14:39.394Z,7.50
2023-04-26T11:17:07.128Z,4.93
2023-04-26T11:19:34.866Z,4.97
2023-04-26T11:22:03.187Z,3.97
2023-04-26T11:24:31.421Z,4.70
2023-04-26T11:26:59.068Z,6.80
2023-04-26T11:29:26.754Z,7.30
2023-04-26T11:31:55.386Z,6.33
2023-04-26T11:34:29.234Z,7.97
2023-04-26T11:36:56.849Z,7.03
2023-04-26T11:39:24.432Z,9.17
2023-04-26T11:41:52.056Z,4.53
2023-04-26T11:44:20.349Z,5.33
2023-04-26T11:46:51.141Z,5.23
2023-04-26T11:49:18.863Z,5.13
2023-04-26T11:51:48.779Z,4.00
2023-04-26T11:54:29.056Z,8.67
2023-04-26T11:56:57.173Z,4.73
2023-04-26T11:59:28.341Z,4.57
2023-04-26T12:01:56.560Z,8.43
2023-04-26T12:04:29.985Z,10.50
2023-04-26T12:06:59.118Z,7.90
2023-04-26T12:09:30.355Z,4.17
2023-04-26T12:11:58.691Z,4.80
2023-04-26T12:14:35.473Z,2.80
2023-04-26T12:17:03.804Z,5.87
2023-04-26T12:19:38.208Z,7.17
2023-04-26T12:22:07.257Z,4.67
2023-04-26T12:24:35.064Z,8.60
2023-04-26T12:27:03.513Z,4.87
2023-04-26T12:29:31.760Z,7.43
2023-04-26T12:31:59.835Z,5.20
2023-04-26T12:34:27.606Z,5.07
2023-04-26T12:36:55.290Z,4.60
2023-04-26T12:39:22.897Z,6.83
2023-04-26T12:41:53.342Z,6.00
2023-04-26T12:44:22.486Z,8.20
2023-04-26T12:46:50.679Z,4.20
2023-04-26T12:49:18.316Z,3.60
2023-04-26T12:51:45.952Z,11.47
2023-04-26T12:54:13.504Z,4.57
2023-04-26T12:56:41.101Z,3.47
2023-04-26T12:59:08.676Z,9.77
2023-04-26T13:01:36.266Z,5.13
2023-04-26T13:04:04.134Z,7.23
2023-04-26T13:06:31.756Z,5.83
2023-04-26T13:08:59.388Z,5.13
2023-04-26T13:11:26.944Z,5.10
2023-04-26T13:13:54.527Z,8.63
2023-04-26T13:16:22.191Z,6.30
2023-04-26T13:18:49.895Z,6.40
2023-04-26T13:21:17.469Z,6.37
2023-04-26T13:23:45.049Z,5.37
2023-04-26T13:26:12.536Z,8.03
2023-04-26T13:28:40.182Z,3.67
2023-04-26T13:31:07.862Z,7.33
2023-04-26T13:33:37.434Z,4.77
2023-04-26T13:36:05.157Z,6.93
2023-04-26T13:38:33.045Z,4.07
2023-04-26T13:41:00.759Z,7.17
2023-04-26T13:43:28.296Z,4.83
2023-04-26T13:45:55.912Z,5.37
2023-04-26T13:48:23.485Z,7.87
2023-04-26T13:50:51.167Z,4.67
2023-04-26T13:53:18.712Z,4.67
2023-04-26T13:55:46.496Z,5.07
2023-04-26T13:58:14.276Z,5.90
2023-04-26T14:00:42.297Z,5.40
2023-04-26T14:03:10.085Z,5.23
2023-04-26T14:05:37.787Z,4.53
2023-04-26T14:08:05.370Z,4.13
2023-04-26T14:10:33.097Z,7.03
2023-04-26T14:13:00.669Z,3.13
2023-04-26T14:15:28.456Z,3.60
2023-04-26T14:17:55.997Z,6.63
2023-04-26T14:20:23.678Z,6.63
2023-04-26T14:22:51.226Z,4.50
2023-04-26T14:25:18.769Z,3.63
2023-04-26T14:27:46.511Z,4.70
2023-04-26T14:30:14.934Z,5.50
2023-04-26T14:32:42.467Z,6.20
2023-04-26T14:35:10.178Z,4.77
2023-04-26T14:37:37.949Z,5.53
2023-04-26T14:40:05.914Z,4.00
2023-04-26T14:42:33.483Z,7.53
2023-04-26T14:45:01.142Z,9.33
2023-04-26T14:47:28.714Z,5.30
2023-04-26T14:49:57.502Z,6.53
2023-04-26T14:52:25.269Z,7.53
2023-04-26T14:54:53.022Z,6.73
2023-04-26T14:57:20.575Z,5.37
2023-04-26T14:59:48.178Z,10.73
2023-04-26T15:02:16.018Z,7.30
2023-04-26T15:04:44.044Z,4.83
2023-04-26T15:07:20.973Z,7.43
2023-04-26T15:09:52.392Z,5.70
2023-04-26T15:12:19.959Z,4.57
2023-04-26T15:14:47.547Z,7.03
2023-04-26T15:17:15.131Z,7.17
2023-04-26T15:19:42.698Z,6.93
2023-04-26T15:22:10.288Z,6.50
2023-04-26T15:24:38.015Z,6.23
2023-04-26T15:27:05.960Z,7.47
2023-04-26T15:29:36.685Z,4.97
2023-04-26T15:32:04.388Z,4.03
2023-04-26T15:34:38.910Z,3.30
2023-04-26T15:37:06.596Z,9.13
2023-04-26T15:39:34.135Z,4.43
2023-04-26T15:42:01.771Z,8.53
2023-04-26T15:44:29.280Z,4.10
2023-04-26T15:46:56.816Z,9.53
2023-04-26T15:49:24.876Z,7.10
2023-04-26T15:51:52.449Z,5.70
2023-04-26T15:54:19.958Z,4.90
2023-04-26T15:56:47.776Z,6.63
2023-04-26T15:59:15.269Z,6.90
2023-04-26T16:01:42.941Z,4.47
2023-04-26T16:04:10.691Z,6.33
2023-04-26T16:06:38.441Z,6.60
2023-04-26T16:09:10.833Z,10.13
2023-04-26T16:11:51.088Z,4.10
2023-04-26T16:14:18.657Z,7.13
2023-04-26T16:16:46.374Z,6.57
2023-04-26T16:19:14.007Z,6.37
2023-04-26T16:21:41.730Z,5.37
2023-04-26T16:24:09.499Z,4.77
2023-04-26T16:26:37.119Z,3.57
2023-04-26T16:29:04.699Z,6.13
2023-04-26T16:31:32.653Z,6.23
2023-04-26T16:34:00.275Z,2.50
2023-04-26T16:36:29.173Z,4.20
2023-04-26T16:38:56.733Z,2.80
2023-04-26T16:41:24.370Z,3.60
2023-04-26T16:43:51.935Z,5.13
2023-04-26T16:46:19.742Z,5.97
2023-04-26T16:48:47.449Z,6.13
2023-04-26T16:51:15.126Z,8.73
2023-04-26T16:53:42.719Z,7.83
2023-04-26T16:56:10.332Z,7.77
2023-04-26T16:58:37.902Z,6.90
2023-04-26T17:01:05.661Z,9.13
2023-04-26T17:03:33.451Z,5.13
2023-04-26T17:06:01.190Z,5.20
2023-04-26T17:08:28.756Z,7.20
2023-04-26T17:11:00.524Z,6.27
2023-04-26T17:13:28.245Z,4.30
2023-04-26T17:15:55.853Z,5.07
2023-04-26T17:18:26.096Z,4.20
2023-04-26T17:20:53.928Z,7.20
2023-04-26T17:23:21.589Z,6.00
2023-04-26T17:25:49.269Z,5.47
2023-04-26T17:28:16.961Z,5.97
2023-04-26T17:30:44.522Z,4.53
2023-04-26T17:33:12.173Z,4.27
2023-04-26T17:35:39.737Z,5.90
2023-04-26T17:38:07.242Z,7.67
2023-04-26T17:40:34.849Z,6.33
2023-04-26T17:43:02.383Z,9.10
2023-04-26T17:45:30.050Z,4.10
2023-04-26T17:47:57.710Z,6.33
2023-04-26T17:50:25.348Z,5.03
2023-04-26T17:52:55.872Z,4.80
2023-04-26T17:55:23.507Z,3.77
2023-04-26T17:57:51.068Z,5.97
2023-04-26T18:00:18.938Z,4.80
2023-04-26T18:02:46.630Z,5.33
2023-04-26T18:05:17.065Z,5.97
2023-04-26T18:07:47.184Z,3.77
2023-04-26T18:10:14.896Z,9.97
2023-04-26T18:12:42.404Z,6.07
2023-04-26T18:15:10.048Z,8.73
2023-04-26T18:17:37.648Z,6.87
2023-04-26T18:20:05.513Z,5.53
2023-04-26T18:22:33.064Z,5.63
2023-04-26T18:25:00.669Z,5.17
2023-04-26T18:27:28.221Z,11.50
2023-04-26T18:29:55.811Z,6.87
2023-04-26T18:32:23.418Z,7.63
2023-04-26T18:34:51.073Z,8.70
2023-04-26T18:37:18.644Z,6.67
2023-04-26T18:39:46.247Z,5.60
2023-04-26T18:42:13.757Z,8.00
2023-04-26T18:44:41.321Z,7.10
2023-04-26T18:47:08.874Z,6.33
2023-04-26T18:49:36.450Z,6.17
2023-04-26T18:52:04.002Z,6.97
2023-04-26T18:54:31.672Z,5.53
2023-04-26T18:57:00.276Z,7.13
2023-04-26T18:59:28.851Z,8.97
2023-04-26T19:01:56.646Z,6.70
2023-04-26T19:04:24.647Z,6.87
2023-04-26T19:06:52.337Z,4.97
2023-04-26T19:09:19.926Z,5.37
2023-04-26T19:11:47.513Z,9.20
2023-04-26T19:14:15.270Z,6.10
2023-04-26T19:16:42.812Z,5.60
2023-04-26T19:19:10.431Z,8.27
2023-04-26T19:21:37.993Z,12.70
2023-04-26T19:24:05.767Z,5.50
2023-04-26T19:26:33.352Z,5.53
2023-04-26T19:29:00.912Z,8.00
2023-04-26T19:31:28.412Z,5.17
2023-04-26T19:33:56.030Z,6.23
2023-04-26T19:36:23.892Z,7.80
2023-04-26T19:38:51.500Z,7.40
2023-04-26T19:41:19.035Z,7.43
2023-04-26T19:43:46.739Z,10.27
2023-04-26T19:46:14.938Z,6.60
2023-04-26T19:48:42.657Z,7.47
2023-04-26T19:51:15.190Z,9.10
2023-04-26T19:53:42.997Z,7.60
2023-04-26T19:56:11.993Z,9.13
2023-04-26T19:58:46.204Z,10.10
2023-04-26T20:01:14.026Z,7.90
2023-04-26T20:03:41.905Z,7.20
2023-04-26T20:06:09.581Z,12.77
2023-04-26T20:08:37.366Z,10.00
2023-04-26T20:11:08.001Z,8.13
2023-04-26T20:13:35.627Z,13.60
2023-04-26T20:16:03.215Z,8.47
2023-04-26T20:18:30.831Z,13.83
2023-04-26T20:20:58.379Z,13.03
2023-04-26T20:23:26.058Z,9.80
2023-04-26T20:25:53.661Z,7.57
2023-04-26T20:28:21.430Z,5.03
2023-04-26T20:30:49.128Z,7.90
2023-04-26T20:33:16.993Z,7.07
2023-04-26T20:35:44.640Z,7.83
2023-04-26T20:38:12.371Z,13.37
2023-04-26T20:40:39.954Z,7.80
2023-04-26T20:43:07.782Z,10.70
2023-04-26T20:45:35.388Z,7.87
2023-04-26T20:48:03.048Z,8.10
2023-04-26T20:50:30.725Z,8.27
2023-04-26T20:52:58.352Z,9.57
2023-04-26T20:55:25.892Z,11.00
2023-04-26T20:57:53.446Z,7.93
2023-04-26T21:00:21.104Z,9.87
2023-04-26T21:02:48.884Z,13.33
2023-04-26T21:05:16.454Z,7.60
2023-04-26T21:07:44.038Z,8.67
2023-04-26T21:10:11.632Z,8.30
2023-04-26T21:12:39.259Z,10.00
2023-04-26T21:15:07.175Z,9.63
2023-04-26T21:17:34.798Z,7.83
2023-04-26T21:20:02.366Z,9.13
2023-04-26T21:22:30.008Z,8.77
2023-04-26T21:24:57.551Z,9.57
2023-04-26T21:27:25.195Z,7.07
2023-04-26T21:29:55.854Z,9.77
2023-04-26T21:32:23.488Z,12.00
2023-04-26T21:34:50.997Z,7.70
2023-04-26T21:37:18.597Z,10.57
2023-04-26T21:39:46.132Z,11.07
2023-04-26T21:42:13.701Z,12.57
2023-04-26T21:44:44.384Z,13.20
2023-04-26T21:47:14.728Z,11.33
2023-04-26T21:49:42.336Z,11.80
2023-04-26T21:52:10.010Z,9.40
2023-04-26T21:54:37.551Z,11.40
2023-04-26T21:57:09.610Z,9.97
2023-04-26T21:59:37.147Z,9.03
2023-04-26T22:02:04.719Z,11.07
2023-04-26T22:04:32.352Z,8.10
2023-04-26T22:06:59.904Z,8.73
2023-04-26T22:09:27.434Z,9.47
2023-04-26T22:11:54.921Z,6.73
2023-04-26T22:14:22.813Z,12.23
2023-04-26T22:16:50.396Z,8.90
2023-04-26T22:19:18.033Z,13.30
2023-04-26T22:21:45.553Z,10.57
2023-04-26T22:24:13.217Z,8.70
2023-04-26T22:26:40.736Z,10.10
2023-04-26T22:29:08.617Z,8.63
2023-04-26T22:31:36.415Z,9.73
2023-04-26T22:34:04.096Z,10.63
2023-04-26T22:36:31.707Z,10.67
2023-04-26T22:38:59.393Z,9.40
2023-04-26T22:41:26.896Z,11.43
2023-04-26T22:43:54.567Z,9.80
2023-04-26T22:46:22.151Z,10.13
2023-04-26T22:48:49.714Z,7.43
2023-04-26T22:51:17.281Z,9.77
2023-04-26T22:53:44.916Z,13.40
2023-04-26T22:56:12.565Z,13.10
2023-04-26T22:58:40.128Z,14.37
2023-04-26T23:01:07.666Z,12.90
2023-04-26T23:03:38.217Z,6.53
2023-04-26T23:06:06.183Z,14.23
2023-04-26T23:08:33.769Z,10.90
2023-04-26T23:11:01.351Z,10.07
2023-04-26T23:13:28.880Z,10.23
2023-04-26T23:15:56.421Z,10.40
2023-04-26T23:18:23.984Z,9.63
2023-04-26T23:20:51.602Z,12.80
2023-04-26T23:23:19.132Z,11.63
2023-04-26T23:25:46.744Z,12.57
2023-04-26T23:28:14.355Z,11.73
2023-04-26T23:30:41.980Z,9.23
2023-04-26T23:33:09.625Z,10.83
2023-04-26T23:35:40.662Z,8.60
2023-04-26T23:38:08.355Z,10.40
2023-04-26T23:40:35.864Z,10.43
2023-04-26T23:43:03.694Z,12.80
2023-04-26T23:45:31.184Z,9.23
2023-04-26T23:47:58.880Z,10.80
2023-04-26T23:50:26.382Z,11.93
2023-04-26T23:52:53.920Z,15.63
2023-04-26T23:55:21.429Z,14.13
2023-04-26T23:57:49.027Z,12.13
